Time;durP1;ratioP1;P1;durP2;ratioP2;P2;SDS_P1;SDS_P2;PMS_P1;PMS_P2;Temp;Humidity;BMP_temperature;BMP_pressure;BME280_temperature;BME280_humidity;BME280_pressure;Samples;Min_cycle;Max_cycle;Signal;HPM_P1;HPM_P2
2022/03/25 00:02:24;;;;;;;13.63;7.20;;;;;;;8.63;41.03;100773.66;6370797;27;20051;-74
2022/03/25 00:05:25;;;;;;;16.48;7.70;;;;;;;8.51;41.57;100770.72;6358430;27;20111;-71
2022/03/25 00:08:26;;;;;;;17.30;7.30;;;;;;;8.49;41.84;100770.78;6376218;27;20035;-71
2022/03/25 00:11:27;;;;;;;14.77;6.75;;;;;;;8.36;42.16;100770.41;6357993;27;20039;-70
2022/03/25 00:14:28;;;;;;;17.77;7.95;;;;;;;8.15;42.56;100774.69;6376277;27;20041;-71
2022/03/25 00:17:29;;;;;;;15.82;7.72;;;;;;;8.24;42.49;100779.53;6376269;27;20138;-71
2022/03/25 00:20:30;;;;;;;28.08;8.48;;;;;;;8.16;42.78;100770.34;6375986;27;20096;-71
2022/03/25 00:23:31;;;;;;;15.63;7.50;;;;;;;8.24;42.86;100778.69;6376090;27;20479;-71
2022/03/25 00:26:32;;;;;;;17.92;8.32;;;;;;;8.20;42.77;100761.53;6374682;27;20445;-71
2022/03/25 00:29:33;;;;;;;17.25;7.75;;;;;;;8.08;42.64;100768.03;6375811;27;20047;-71
2022/03/25 00:32:35;;;;;;;21.25;8.10;;;;;;;8.08;42.73;100765.44;6374752;27;20123;-74
2022/03/25 00:35:36;;;;;;;21.30;8.35;;;;;;;7.91;43.31;100766.09;6357473;27;20141;-75
2022/03/25 00:38:37;;;;;;;20.48;8.48;;;;;;;7.94;43.45;100767.72;6374866;27;20070;-74
2022/03/25 00:41:38;;;;;;;16.75;8.52;;;;;;;7.84;43.70;100768.09;6375814;27;20050;-75
2022/03/25 00:44:38;;;;;;;21.02;8.60;;;;;;;7.80;43.89;100770.84;6374690;27;20043;-74
2022/03/25 00:47:39;;;;;;;14.07;7.97;;;;;;;7.83;43.79;100765.56;6357537;27;20039;-74
2022/03/25 00:50:41;;;;;;;18.30;8.52;;;;;;;7.81;43.87;100767.38;6357474;27;20043;-74
2022/03/25 00:53:42;;;;;;;17.67;7.80;;;;;;;7.75;44.19;100759.81;6373953;27;20047;-74
2022/03/25 00:56:43;;;;;;;17.92;8.55;;;;;;;7.68;44.42;100767.00;6356250;27;20107;-75
2022/03/25 00:59:47;;;;;;;17.48;8.65;;;;;;;7.51;45.60;100770.19;6373808;27;20043;-75
2022/03/25 01:02:48;;;;;;;22.17;8.23;;;;;;;7.52;45.15;100765.88;6373895;27;20082;-75
2022/03/25 01:05:49;;;;;;;16.23;8.40;;;;;;;7.64;44.53;100765.41;6375414;27;20069;-75
2022/03/25 01:08:50;;;;;;;16.05;8.05;;;;;;;7.60;44.96;100767.28;6375219;27;20042;-75
2022/03/25 01:11:52;;;;;;;22.40;8.20;;;;;;;7.62;44.72;100768.06;6374045;27;20490;-75
2022/03/25 01:14:53;;;;;;;18.73;9.13;;;;;;;7.56;45.02;100768.28;6373432;27;20055;-74
2022/03/25 01:17:54;;;;;;;20.63;8.60;;;;;;;7.51;45.44;100762.41;6374985;27;20071;-74
2022/03/25 01:20:55;;;;;;;14.38;7.70;;;;;;;7.51;45.21;100769.34;6373891;27;20502;-74
2022/03/25 01:23:57;;;;;;;20.33;8.52;;;;;;;7.39;45.32;100758.53;6356767;27;20115;-74
2022/03/25 01:26:58;;;;;;;18.85;9.25;;;;;;;7.37;45.85;100759.47;6373674;27;20505;-74
2022/03/25 01:29:59;;;;;;;19.17;8.73;;;;;;;7.18;46.04;100762.72;6356343;27;20043;-74
2022/03/25 01:33:00;;;;;;;24.77;9.23;;;;;;;7.18;46.22;100754.09;6349228;27;20047;-74
2022/03/25 01:36:00;;;;;;;19.38;8.70;;;;;;;7.09;46.62;100765.66;6348840;28;20142;-74
2022/03/25 01:39:02;;;;;;;18.38;8.43;;;;;;;6.97;46.89;100766.91;6347935;28;20088;-74
2022/03/25 01:42:04;;;;;;;;;;;;;;;7.13;46.44;100771.59;6348313;28;20043;-74
2022/03/25 01:45:06;;;;;;;22.75;8.45;;;;;;;7.10;46.53;100764.75;6347735;28;19969;-74
2022/03/25 01:48:11;;;;;;;17.03;8.03;;;;;;;7.07;46.81;100760.50;6348789;28;20529;-74
2022/03/25 01:51:15;;;;;;;20.20;8.93;;;;;;;7.06;46.42;100769.22;6330327;28;20471;-74
2022/03/25 01:54:23;;;;;;;15.20;8.00;;;;;;;6.89;47.30;100768.09;6348531;28;20523;-74
2022/03/25 01:57:25;;;;;;;18.10;8.68;;;;;;;6.97;46.96;100763.50;6348554;28;20583;-74
2022/03/25 02:00:29;;;;;;;20.17;8.60;;;;;;;6.93;47.81;100767.94;6313337;28;20059;-74
2022/03/25 02:03:31;;;;;;;21.92;8.57;;;;;;;6.93;47.01;100765.34;6348154;28;20047;-74
2022/03/25 02:06:32;;;;;;;21.88;8.20;;;;;;;6.79;47.58;100768.38;6303662;28;20056;-75
2022/03/25 02:09:33;;;;;;;18.55;8.05;;;;;;;6.76;47.44;100772.84;6320330;28;20131;-74
2022/03/25 02:12:38;;;;;;;19.80;9.10;;;;;;;6.56;47.97;100776.94;6320208;28;20060;-74
2022/03/25 02:15:43;;;;;;;19.80;8.50;;;;;;;6.59;48.17;100781.19;6320220;28;20131;-75
2022/03/25 02:18:45;;;;;;;17.77;8.75;;;;;;;6.60;48.01;100767.31;6320110;28;20484;-74
2022/03/25 02:21:47;;;;;;;21.77;8.52;;;;;;;6.44;48.84;100777.34;6286473;28;20084;-75
2022/03/25 02:24:49;;;;;;;18.73;9.25;;;;;;;6.29;49.33;100770.91;6362361;27;20060;-74
2022/03/25 02:27:50;;;;;;;22.10;9.63;;;;;;;6.24;49.57;100778.00;6346951;28;20039;-74
2022/03/25 02:30:51;;;;;;;20.70;8.88;;;;;;;6.22;49.48;100770.25;6346757;28;20098;-75
2022/03/25 02:34:04;;;;;;;18.00;8.82;;;;;;;6.25;49.24;100769.31;6346533;27;20052;-75
2022/03/25 02:37:05;;;;;;;19.70;9.27;;;;;;;6.28;49.65;100771.81;6346923;28;20047;-75
2022/03/25 02:40:07;;;;;;;16.95;8.60;;;;;;;6.23;49.40;100771.94;6345265;28;20052;-76
2022/03/25 02:43:10;;;;;;;27.27;8.70;;;;;;;6.21;48.97;100768.56;6312530;28;20480;-75
2022/03/25 02:46:11;;;;;;;15.55;7.45;;;;;;;6.14;49.55;100777.44;6347831;28;20043;-75
2022/03/25 02:49:12;;;;;;;21.00;9.07;;;;;;;6.17;49.74;100779.06;6346089;28;20078;-75
2022/03/25 02:52:13;;;;;;;17.55;9.02;;;;;;;6.05;50.42;100775.97;6346100;28;20381;-75
2022/03/25 02:55:14;;;;;;;17.75;9.02;;;;;;;5.98;50.58;100782.22;6312284;28;20555;-75
2022/03/25 02:58:17;;;;;;;18.77;9.13;;;;;;;5.97;51.04;100790.03;6345899;28;20130;-74
2022/03/25 03:01:18;;;;;;;16.27;8.50;;;;;;;6.03;51.35;100792.44;6379942;27;20052;-74
2022/03/25 03:04:19;;;;;;;20.17;9.05;;;;;;;5.87;51.98;100784.28;6347059;28;20043;-75
2022/03/25 03:07:20;;;;;;;20.60;8.73;;;;;;;5.90;51.87;100785.91;6347041;28;20051;-75
2022/03/25 03:10:22;;;;;;;25.00;9.73;;;;;;;5.85;51.41;100788.66;6345644;28;20054;-74
2022/03/25 03:13:23;;;;;;;16.38;9.10;;;;;;;5.79;52.00;100783.66;6346901;28;20055;-74
2022/03/25 03:16:24;;;;;;;23.75;9.48;;;;;;;5.83;51.85;100785.25;6346846;28;20644;-74
2022/03/25 03:19:25;;;;;;;19.13;9.13;;;;;;;5.74;51.91;100776.00;6346765;28;20059;-74
2022/03/25 03:22:26;;;;;;;23.80;9.23;;;;;;;5.67;52.09;100789.19;6346353;28;20059;-74
2022/03/25 03:25:27;;;;;;;18.95;9.35;;;;;;;5.70;51.78;100784.75;6346997;28;20472;-74
2022/03/25 03:28:28;;;;;;;20.05;9.70;;;;;;;5.58;51.79;100782.50;6346508;28;20047;-74
2022/03/25 03:31:29;;;;;;;25.20;10.07;;;;;;;5.49;52.27;100788.81;6334975;27;20047;-74
2022/03/25 03:34:30;;;;;;;29.33;11.20;;;;;;;5.48;52.56;100787.13;6370593;27;20047;-74
2022/03/25 03:37:31;;;;;;;19.83;9.35;;;;;;;5.34;53.03;100781.47;6353823;27;20490;-74
2022/03/25 03:40:32;;;;;;;18.48;9.50;;;;;;;5.29;53.52;100791.09;6370774;27;20047;-75
2022/03/25 03:43:33;;;;;;;19.45;9.63;;;;;;;5.27;53.78;100785.13;6372069;27;20103;-75
2022/03/25 03:46:34;;;;;;;20.02;9.55;;;;;;;5.13;54.71;100786.34;6353892;28;20074;-75
2022/03/25 03:49:35;;;;;;;21.08;9.95;;;;;;;5.19;54.67;100781.00;6336639;28;20514;-75
2022/03/25 03:52:36;;;;;;;27.52;10.20;;;;;;;5.20;55.02;100790.47;6370576;28;20048;-75
2022/03/25 03:55:37;;;;;;;19.65;9.95;;;;;;;5.23;55.04;100780.03;6370468;28;20050;-75
2022/03/25 03:58:39;;;;;;;18.67;9.70;;;;;;;5.24;55.16;100789.47;6336657;28;20039;-75
2022/03/25 04:01:40;;;;;;;21.67;9.70;;;;;;;5.10;55.94;100793.34;6371421;27;20051;-74
2022/03/25 04:04:41;;;;;;;24.65;10.02;;;;;;;5.09;56.12;100791.66;6371500;28;20536;-74
2022/03/25 04:07:43;;;;;;;23.50;10.40;;;;;;;5.17;55.40;100789.72;6371560;27;20040;-74
2022/03/25 04:10:44;;;;;;;;;;;;;;;5.05;56.00;100801.22;6370678;28;20042;-74
2022/03/25 04:13:45;;;;;;;22.30;11.52;;;;;;;5.13;55.92;100794.13;6371423;28;19955;-73
2022/03/25 04:16:46;;;;;;;26.08;11.98;;;;;;;5.23;55.11;100792.97;6370517;28;20077;-74
2022/03/25 04:19:47;;;;;;;24.15;11.85;;;;;;;5.18;55.33;100796.56;6370554;28;20046;-74
2022/03/25 04:22:48;;;;;;;32.55;13.52;;;;;;;5.17;55.51;100802.66;6369930;28;20513;-74
2022/03/25 04:25:49;;;;;;;29.27;12.60;;;;;;;5.02;55.88;100798.72;6370262;28;20039;-74
2022/03/25 04:28:50;;;;;;;26.13;12.43;;;;;;;5.02;55.56;100794.41;6370336;27;20185;-75
2022/03/25 04:31:50;;;;;;;26.85;11.70;;;;;;;4.99;55.50;100803.97;6352305;28;20043;-72
2022/03/25 04:34:51;;;;;;;26.00;12.93;;;;;;;4.98;55.91;100797.97;6369391;28;20058;-72
2022/03/25 04:37:52;;;;;;;26.80;12.70;;;;;;;5.05;55.11;100809.84;6369149;28;20075;-71
2022/03/25 04:40:53;;;;;;;26.48;13.35;;;;;;;5.05;55.41;100799.47;6361406;27;20043;-70
2022/03/25 04:43:54;;;;;;;30.42;14.07;;;;;;;5.02;55.39;100801.28;6370872;27;20428;-70
2022/03/25 04:46:56;;;;;;;30.17;13.45;;;;;;;5.00;55.38;100800.47;6352587;28;20052;-70
2022/03/25 04:49:57;;;;;;;26.98;13.23;;;;;;;4.95;55.74;100820.47;6354893;27;20047;-70
2022/03/25 04:52:58;;;;;;;28.85;13.82;;;;;;;4.82;56.31;100820.78;6352448;27;20132;-70
2022/03/25 04:56:00;;;;;;;33.22;15.05;;;;;;;4.86;55.61;100816.38;6349769;28;20616;-70
2022/03/25 04:59:02;;;;;;;31.23;14.68;;;;;;;4.66;56.19;100824.63;6355596;27;20043;-70
2022/03/25 05:02:03;;;;;;;34.43;15.47;;;;;;;4.58;56.41;100822.22;6373685;27;20507;-70
2022/03/25 05:05:05;;;;;;;31.90;14.68;;;;;;;4.64;56.48;100826.38;6373923;27;20039;-70
2022/03/25 05:08:06;;;;;;;28.40;15.33;;;;;;;4.68;56.25;100830.59;6374902;27;20036;-70
2022/03/25 05:11:07;;;;;;;31.63;15.68;;;;;;;4.60;56.47;100830.78;6373805;27;20050;-70
2022/03/25 05:14:09;;;;;;;34.78;16.30;;;;;;;4.62;56.94;100828.16;6353013;27;20047;-74
2022/03/25 05:17:10;;;;;;;35.15;16.23;;;;;;;4.62;57.65;100830.75;6350704;27;20039;-74
2022/03/25 05:20:11;;;;;;;34.42;17.20;;;;;;;4.66;57.71;100831.53;6348870;27;20054;-74
2022/03/25 05:23:12;;;;;;;40.30;16.48;;;;;;;4.87;56.55;100830.16;6372632;27;20123;-74
2022/03/25 05:26:13;;;;;;;32.00;15.85;;;;;;;4.95;56.66;100834.22;6338809;27;20044;-74
2022/03/25 05:29:15;;;;;;;31.73;16.02;;;;;;;4.97;56.78;100836.78;6337042;27;20073;-74
2022/03/25 05:32:22;;;;;;;37.17;15.43;;;;;;;5.16;56.26;100826.81;6356278;27;20035;-74
2022/03/25 05:35:24;;;;;;;32.58;15.32;;;;;;;5.21;56.44;100833.56;6371993;27;20486;-74
2022/03/25 05:38:25;;;;;;;29.83;13.98;;;;;;;5.37;55.81;100840.91;6355696;27;20047;-74
2022/03/25 05:41:27;;;;;;;29.95;14.23;;;;;;;5.51;55.68;100840.53;6370746;27;21535;-75
2022/03/25 05:44:28;;;;;;;38.93;13.70;;;;;;;5.71;54.87;100846.03;6373752;27;20043;-74
2022/03/25 05:47:29;;;;;;;34.33;14.30;;;;;;;5.80;54.83;100850.91;6372270;27;20332;-75
2022/03/25 05:50:30;;;;;;;36.88;13.60;;;;;;;5.82;54.75;100849.13;6371964;27;20067;-75
2022/03/25 05:53:32;;;;;;;38.53;17.58;;;;;;;5.83;54.78;100850.00;6372760;27;20051;-70
2022/03/25 05:56:33;;;;;;;71.50;33.47;;;;;;;5.84;54.47;100851.69;6322071;27;20415;-71
2022/03/25 05:59:34;;;;;;;41.70;21.83;;;;;;;5.99;54.59;100853.88;6371411;27;20054;-70
2022/03/25 06:02:35;;;;;;;35.85;13.93;;;;;;;6.28;53.81;100857.34;6365252;27;20133;-71
2022/03/25 06:05:36;;;;;;;32.05;13.65;;;;;;;6.36;54.37;100855.38;6362506;27;20047;-70
2022/03/25 06:08:37;;;;;;;28.98;14.35;;;;;;;6.51;54.15;100855.78;6363575;27;20387;-70
2022/03/25 06:11:38;;;;;;;27.13;13.65;;;;;;;6.69;53.04;100856.94;6363429;27;20031;-70
2022/03/25 06:14:39;;;;;;;27.55;13.90;;;;;;;6.76;52.91;100861.03;6362700;27;20043;-70
2022/03/25 06:17:45;;;;;;;30.23;15.43;;;;;;;6.91;52.86;100863.13;6349674;27;20430;-71
2022/03/25 06:20:46;;;;;;;26.30;13.93;;;;;;;7.01;52.49;100858.50;6354364;27;20047;-71
2022/03/25 06:23:47;;;;;;;33.53;15.00;;;;;;;7.12;52.30;100863.31;6370468;27;20058;-70
2022/03/25 06:26:48;;;;;;;29.02;15.45;;;;;;;7.50;51.61;100874.97;6371359;27;20043;-70
2022/03/25 06:29:49;;;;;;;34.38;15.27;;;;;;;7.64;51.05;100869.31;6359358;27;20084;-69
2022/03/25 06:32:50;;;;;;;31.50;14.43;;;;;;;7.87;49.87;100874.50;6352147;27;20082;-70
2022/03/25 06:35:51;;;;;;;30.25;15.10;;;;;;;8.03;50.26;100879.13;6364669;27;20368;-70
2022/03/25 06:38:52;;;;;;;36.25;14.80;;;;;;;8.18;49.55;100877.72;6349119;27;20043;-70
2022/03/25 06:41:53;;;;;;;38.30;15.00;;;;;;;8.42;48.20;100883.75;6356830;27;20072;-70
2022/03/25 06:44:54;;;;;;;29.55;13.25;;;;;;;8.61;48.10;100878.69;6370343;27;20061;-69
2022/03/25 06:47:55;;;;;;;26.65;13.38;;;;;;;8.90;47.73;100885.31;6364860;27;20093;-71
2022/03/25 06:50:56;;;;;;;30.90;14.07;;;;;;;8.96;46.62;100885.06;6353323;27;20092;-70
2022/03/25 06:53:57;;;;;;;30.38;13.57;;;;;;;9.13;46.48;100886.13;6345551;27;20058;-70
2022/03/25 06:56:59;;;;;;;26.52;13.82;;;;;;;9.34;46.02;100886.97;6355639;27;20515;-70
2022/03/25 07:00:00;;;;;;;21.00;12.32;;;;;;;9.48;45.85;100892.44;6309392;28;20043;-70
2022/03/25 07:03:01;;;;;;;22.92;12.32;;;;;;;9.41;45.97;100891.00;6345062;28;20505;-70
2022/03/25 07:06:04;;;;;;;28.45;12.88;;;;;;;9.47;45.54;100896.81;6345652;28;20046;-70
2022/03/25 07:09:05;;;;;;;24.33;13.52;;;;;;;9.69;44.69;100894.09;6345374;28;20121;-71
2022/03/25 07:12:07;;;;;;;22.00;12.90;;;;;;;9.86;44.93;100897.72;6327060;28;20116;-70
2022/03/25 07:15:09;;;;;;;30.73;13.33;;;;;;;9.97;44.82;100895.50;6345469;28;20035;-70
2022/03/25 07:18:10;;;;;;;31.27;13.13;;;;;;;10.12;44.03;100896.56;6344414;28;20278;-70
2022/03/25 07:21:12;;;;;;;26.57;12.67;;;;;;;10.52;43.85;100907.78;6345445;28;20050;-70
2022/03/25 07:24:13;;;;;;;24.43;12.60;;;;;;;10.39;43.52;100898.84;6327308;28;20066;-71
2022/03/25 07:27:14;;;;;;;34.83;12.40;;;;;;;10.85;43.57;100899.25;6345212;28;20088;-71
2022/03/25 07:30:17;;;;;;;32.53;14.13;;;;;;;10.98;43.39;100895.13;6345071;28;20043;-70
2022/03/25 07:33:18;;;;;;;24.50;13.18;;;;;;;10.89;42.71;100891.22;6345256;28;20766;-71
2022/03/25 07:36:19;;;;;;;30.20;12.43;;;;;;;11.05;42.23;100899.13;6343858;28;20031;-71
2022/03/25 07:39:20;;;;;;;25.83;12.05;;;;;;;11.27;41.80;100893.66;6343982;28;20047;-71
2022/03/25 07:42:21;;;;;;;24.17;11.57;;;;;;;11.54;40.88;100893.19;6343905;28;20035;-70
2022/03/25 07:45:22;;;;;;;25.70;12.50;;;;;;;11.78;41.37;100898.91;6345344;28;20096;-70
2022/03/25 07:48:25;;;;;;;26.02;11.98;;;;;;;12.15;40.53;100901.34;6343931;28;20044;-71
2022/03/25 07:51:26;;;;;;;21.70;10.68;;;;;;;12.27;39.35;100898.94;6355363;28;20044;-70
2022/03/25 07:54:27;;;;;;;22.13;10.30;;;;;;;12.20;38.37;100891.50;6344307;28;20392;-70
2022/03/25 07:57:28;;;;;;;22.63;10.40;;;;;;;12.41;38.76;100894.69;6353929;27;20111;-70
2022/03/25 08:00:29;;;;;;;17.63;9.60;;;;;;;12.57;38.14;100892.91;6353718;28;20122;-70
2022/03/25 08:03:30;;;;;;;18.17;9.07;;;;;;;12.55;38.08;100905.25;6344476;27;20074;-70
2022/03/25 08:06:31;;;;;;;23.83;10.10;;;;;;;12.74;37.57;100897.19;6364294;27;20499;-72
2022/03/25 08:09:33;;;;;;;33.58;9.02;;;;;;;12.74;37.72;100891.13;6362712;28;20054;-71
2022/03/25 08:12:35;;;;;;;15.63;8.80;;;;;;;13.11;37.75;100879.38;6369723;27;20043;-71
2022/03/25 08:15:36;;;;;;;;;;;;;;;13.47;36.89;100884.25;6369655;27;20051;-72
2022/03/25 08:18:36;;;;;;;15.23;7.18;;;;;;;13.45;35.96;100883.50;6371097;28;19996;-71
2022/03/25 08:21:37;;;;;;;16.52;8.07;;;;;;;13.54;36.28;100884.72;6353369;28;20156;-71
2022/03/25 08:28:00;;;;;;;16.05;8.15;;;;;;;13.82;35.70;100883.06;6375534;27;20092;-71
2022/03/25 08:31:01;;;;;;;18.00;8.07;;;;;;;13.81;35.99;100890.06;6358998;27;20044;-72
2022/03/25 08:34:03;;;;;;;18.87;7.40;;;;;;;13.75;35.44;100885.19;6348748;27;20126;-72
2022/03/25 08:37:04;;;;;;;14.00;8.00;;;;;;;14.01;35.55;100885.38;6356428;27;20096;-73
2022/03/25 08:40:05;;;;;;;16.02;8.35;;;;;;;13.99;35.50;100889.88;6373887;27;20466;-77
2022/03/25 08:43:07;;;;;;;19.25;8.00;;;;;;;14.03;35.48;100894.84;6357345;27;20047;-77
2022/03/25 08:46:08;;;;;;;21.05;8.13;;;;;;;14.17;35.32;100888.75;6374642;27;20705;-77
2022/03/25 08:49:10;;;;;;;17.23;8.15;;;;;;;14.29;35.18;100895.00;6371550;27;20467;-73
2022/03/25 08:55:18;;;;;;;14.25;8.45;;;;;;;14.65;34.13;100898.88;6354030;27;20039;-84
2022/03/25 08:58:19;;;;;;;19.50;10.05;;;;;;;14.55;34.01;100884.63;6338451;27;20043;-75
2022/03/25 09:01:26;;;;;;;18.17;9.65;;;;;;;14.95;33.85;100882.88;6350907;27;20031;-75
2022/03/25 09:04:27;;;;;;;20.35;9.70;;;;;;;15.10;34.81;100879.22;6363916;27;20070;-83
2022/03/25 09:07:29;;;;;;;15.57;8.17;;;;;;;14.90;33.72;100877.09;6337695;27;20124;-81
2022/03/25 09:10:30;;;;;;;17.95;7.72;;;;;;;14.91;34.06;100884.03;6373152;27;20054;-86
2022/03/25 09:13:32;;;;;;;24.35;9.55;;;;;;;14.80;34.15;100876.84;6347078;27;20044;-77
2022/03/25 09:16:34;;;;;;;16.02;8.50;;;;;;;15.26;33.52;100872.97;6347767;28;20045;-75
2022/03/25 09:19:35;;;;;;;;;;;;;;;15.27;33.56;100880.72;6351250;27;20491;-76
2022/03/25 09:22:36;;;;;;;20.15;8.68;;;;;;;15.44;33.52;100884.00;6326354;27;19975;-76
2022/03/25 09:25:37;;;;;;;19.20;8.38;;;;;;;15.20;33.54;100873.38;6356021;27;20050;-75
2022/03/25 09:28:37;;;;;;;19.42;8.25;;;;;;;15.71;33.04;100882.09;6322946;27;20399;-76
2022/03/25 09:31:39;;;;;;;12.98;7.80;;;;;;;15.82;32.77;100865.59;6343383;27;20039;-83
2022/03/25 09:38:00;;;;;;;17.63;8.80;;;;;;;15.78;32.47;100869.41;6344673;27;20581;-82
2022/03/25 09:41:04;;;;;;;21.38;8.68;;;;;;;15.49;33.18;100866.97;6355656;27;20053;-77
2022/03/25 09:44:05;;;;;;;18.92;8.55;;;;;;;15.49;33.24;100866.13;6321841;27;20043;-77
2022/03/25 09:47:06;;;;;;;23.43;8.37;;;;;;;15.93;32.46;100871.91;6372638;27;20043;-82
2022/03/25 09:50:11;;;;;;;17.73;8.07;;;;;;;16.07;32.96;100862.06;6338980;27;20043;-76
2022/03/25 09:53:13;;;;;;;16.95;6.38;;;;;;;16.86;31.71;100853.75;6350277;27;20188;-82
2022/03/25 09:56:34;;;;;;;10.82;5.80;;;;;;;17.02;31.49;100850.81;6358305;27;20043;-84
2022/03/25 09:59:35;;;;;;;14.10;6.65;;;;;;;17.06;31.00;100847.00;6330106;28;20040;-87
2022/03/25 10:02:36;;;;;;;19.25;7.85;;;;;;;17.17;30.17;100856.72;6354432;27;20108;-85
2022/03/25 10:05:53;;;;;;;13.13;6.13;;;;;;;16.77;31.13;100849.97;6353989;27;20043;-86
2022/03/25 10:08:57;;;;;;;15.20;6.88;;;;;;;16.71;30.91;100848.63;6366349;27;20459;-75
2022/03/25 10:11:58;;;;;;;14.98;6.20;;;;;;;17.37;30.86;100840.22;6346525;28;20106;-74
2022/03/25 10:15:15;;;;;;;13.02;6.13;;;;;;;17.43;30.70;100838.91;6351489;27;20388;-75
2022/03/25 10:18:18;;;;;;;20.42;6.10;;;;;;;17.62;30.18;100843.56;6373568;27;20092;-75
2022/03/25 10:21:19;;;;;;;13.25;6.45;;;;;;;17.48;30.54;100836.72;6337656;27;20039;-75
2022/03/25 10:24:39;;;;;;;13.20;5.88;;;;;;;17.58;30.40;100834.22;6321808;27;20047;-75
2022/03/25 10:27:40;;;;;;;10.48;5.57;;;;;;;17.46;31.23;100833.38;6354184;27;20063;-75
2022/03/25 10:30:42;;;;;;;11.98;4.93;;;;;;;17.31;30.92;100836.22;6359030;27;20531;-76
2022/03/25 10:33:47;;;;;;;14.27;5.85;;;;;;;17.22;30.57;100822.94;6317964;27;20045;-76
2022/03/25 10:37:00;;;;;;;9.50;5.25;;;;;;;17.63;30.72;100826.81;6369577;27;20039;-76
2022/03/25 10:40:05;;;;;;;11.35;6.07;;;;;;;17.67;31.33;100825.59;6361918;27;20058;-76
2022/03/25 10:43:08;;;;;;;19.85;5.78;;;;;;;17.67;30.54;100825.59;6353606;27;20039;-76
2022/03/25 10:46:29;;;;;;;10.23;5.18;;;;;;;17.76;31.00;100811.66;6352906;27;20118;-75
2022/03/25 10:49:38;;;;;;;11.10;5.63;;;;;;;18.16;29.66;100818.22;6375218;27;20043;-84
2022/03/25 10:52:39;;;;;;;14.95;5.00;;;;;;;18.35;29.60;100818.41;6339470;27;20059;-84
2022/03/25 10:55:40;;;;;;;10.25;5.47;;;;;;;17.88;30.32;100817.81;6351252;27;20124;-82
2022/03/25 10:58:52;;;;;;;14.70;5.65;;;;;;;18.74;29.41;100800.25;6351271;27;20043;-75
2022/03/25 11:02:03;;;;;;;;;;;;;;;18.61;29.15;100810.13;6346313;28;20117;-74
2022/03/25 11:05:05;;;;;;;12.68;5.63;;;;;;;18.97;29.05;100811.56;6346019;28;19924;-75
2022/03/25 11:08:06;;;;;;;10.98;4.88;;;;;;;19.03;29.00;100795.16;6344858;28;20040;-75
2022/03/25 11:11:08;;;;;;;6.63;4.13;;;;;;;18.39;28.92;100797.84;6350032;27;20043;-75
2022/03/25 11:14:10;;;;;;;12.55;5.57;;;;;;;18.29;29.68;100782.78;6345565;28;20068;-76
2022/03/25 11:17:12;;;;;;;9.05;4.55;;;;;;;18.45;28.99;100792.94;6346298;27;20402;-75
2022/03/25 11:20:15;;;;;;;11.25;4.65;;;;;;;18.30;29.49;100795.03;6318058;27;20453;-75
2022/03/25 11:23:24;;;;;;;11.55;3.95;;;;;;;18.92;29.47;100792.56;6344721;28;20052;-81
2022/03/25 11:26:28;;;;;;;6.30;3.40;;;;;;;18.59;29.65;100790.94;6346471;27;20036;-76
2022/03/25 11:29:32;;;;;;;7.97;4.00;;;;;;;18.97;28.51;100781.63;6343991;28;20044;-76
2022/03/25 11:32:32;;;;;;;8.05;3.97;;;;;;;19.20;28.61;100777.84;6338391;27;20039;-84
2022/03/25 11:35:35;;;;;;;12.32;4.38;;;;;;;18.82;28.89;100775.81;6354673;27;20432;-82
2022/03/25 11:38:36;;;;;;;11.13;4.40;;;;;;;18.91;29.23;100767.94;6372461;27;20043;-75
2022/03/25 11:41:37;;;;;;;8.23;3.63;;;;;;;19.16;28.68;100773.78;6335656;27;20453;-76
2022/03/25 11:44:38;;;;;;;9.68;3.78;;;;;;;19.41;27.70;100767.22;6352581;28;20122;-76
2022/03/25 11:47:39;;;;;;;17.60;3.85;;;;;;;18.50;29.09;100769.59;6350263;28;20421;-76
2022/03/25 11:50:42;;;;;;;15.95;4.03;;;;;;;18.78;29.34;100779.66;6328142;28;20040;-77
2022/03/25 11:53:43;;;;;;;8.77;3.28;;;;;;;19.06;29.30;100767.63;6344304;28;20051;-78
2022/03/25 11:56:47;;;;;;;6.77;3.30;;;;;;;18.76;29.09;100756.00;6339104;28;20085;-78
2022/03/25 11:59:50;;;;;;;13.45;4.00;;;;;;;19.07;29.58;100762.19;6350212;27;20777;-77
2022/03/25 12:03:03;;;;;;;15.43;4.10;;;;;;;19.00;29.28;100753.09;6358830;27;20115;-76
2022/03/25 12:06:04;;;;;;;14.63;3.70;;;;;;;19.15;28.93;100766.84;6365106;27;20050;-76
2022/03/25 12:09:15;;;;;;;11.53;3.13;;;;;;;19.36;28.59;100758.03;6356354;27;20043;-76
2022/03/25 12:12:16;;;;;;;11.60;3.17;;;;;;;19.40;28.70;100762.91;6350145;28;20074;-77
2022/03/25 12:15:17;;;;;;;19.00;4.10;;;;;;;19.35;28.74;100765.09;6350047;28;20073;-82
2022/03/25 12:18:41;;;;;;;13.25;3.95;;;;;;;19.60;28.84;100749.72;6351300;28;20399;-78
2022/03/25 12:21:43;;;;;;;14.85;3.55;;;;;;;19.45;27.58;100749.25;6349948;28;20035;-77
2022/03/25 12:24:49;;;;;;;8.45;3.30;;;;;;;19.16;27.86;100746.50;6333300;28;20055;-77
2022/03/25 12:27:52;;;;;;;12.13;3.60;;;;;;;19.01;28.55;100746.03;6333824;28;20043;-76
2022/03/25 12:30:55;;;;;;;10.65;3.63;;;;;;;18.79;28.66;100747.00;6350648;28;20046;-77
2022/03/25 12:33:58;;;;;;;7.07;3.05;;;;;;;19.25;28.93;100753.63;6350671;28;20042;-77
2022/03/25 12:37:02;;;;;;;9.98;4.40;;;;;;;19.45;28.55;100742.16;6332694;28;20127;-76
2022/03/25 12:40:23;;;;;;;12.13;3.97;;;;;;;19.81;27.99;100739.94;6332532;28;20047;-78
2022/03/25 12:43:33;;;;;;;13.48;4.47;;;;;;;19.03;27.97;100733.50;6332820;28;20044;-76
2022/03/25 12:46:34;;;;;;;14.55;4.32;;;;;;;18.82;28.74;100733.50;6332869;28;20039;-77
2022/03/25 12:49:35;;;;;;;23.52;4.80;;;;;;;18.52;28.82;100741.22;6299433;28;20047;-77
2022/03/25 12:52:36;;;;;;;17.13;4.90;;;;;;;18.63;28.73;100747.41;6332980;28;20377;-85
2022/03/25 12:55:37;;;;;;;20.55;4.07;;;;;;;18.96;28.73;100743.75;6351117;28;20055;-84
2022/03/25 12:58:42;;;;;;;12.43;4.20;;;;;;;19.22;27.70;100736.22;6359837;27;20065;-86
2022/03/25 13:01:46;;;;;;;15.13;4.63;;;;;;;19.32;28.89;100739.75;6350614;28;20471;-84
2022/03/25 13:04:47;;;;;;;15.95;5.78;;;;;;;19.11;28.11;100742.44;6328050;27;20042;-83
2022/03/25 13:07:52;;;;;;;9.70;4.75;;;;;;;19.38;27.75;100732.25;6351704;27;20075;-80
2022/03/25 13:11:00;;;;;;;19.30;4.75;;;;;;;18.57;28.85;100740.84;6350391;27;20062;-84
2022/03/25 13:14:01;;;;;;;10.68;3.95;;;;;;;18.86;28.23;100745.50;6315761;28;20059;-83
2022/03/25 13:17:01;;;;;;;10.38;3.63;;;;;;;19.22;28.21;100728.28;6365670;27;20050;-83
2022/03/25 13:20:13;;;;;;;10.45;4.32;;;;;;;18.80;28.09;100731.03;6349034;28;20055;-82
2022/03/25 13:23:21;;;;;;;10.65;4.43;;;;;;;19.03;29.05;100738.81;6348902;28;20415;-79
2022/03/25 13:26:26;;;;;;;15.13;4.47;;;;;;;18.70;28.58;100727.44;6331863;28;20039;-81
2022/03/25 13:29:27;;;;;;;14.85;5.00;;;;;;;18.84;28.42;100736.88;6348322;28;20533;-82
2022/03/25 13:32:36;;;;;;;21.40;4.97;;;;;;;19.07;28.80;100732.28;6331579;28;20039;-84
2022/03/25 13:35:40;;;;;;;12.48;4.72;;;;;;;18.53;28.60;100731.50;6356967;27;20406;-78
2022/03/25 13:38:54;;;;;;;11.38;4.65;;;;;;;19.00;28.50;100731.13;6347628;28;20048;-79
2022/03/25 13:41:56;;;;;;;18.73;7.50;;;;;;;18.75;28.88;100727.06;6369229;27;20043;-79
2022/03/25 13:45:09;;;;;;;16.27;4.60;;;;;;;18.56;28.69;100718.03;6375023;27;20045;-79
2022/03/25 13:48:15;;;;;;;12.98;5.35;;;;;;;19.10;29.24;100730.19;6375441;27;20043;-78
2022/03/25 13:51:25;;;;;;;13.85;4.55;;;;;;;18.73;28.53;100729.81;6374991;27;20039;-79
2022/03/25 13:54:27;;;;;;;13.70;5.22;;;;;;;18.96;28.41;100738.47;6361440;27;20056;-76
2022/03/25 13:57:28;;;;;;;14.27;7.25;;;;;;;18.85;28.36;100733.28;6333173;28;20075;-74
2022/03/25 14:00:32;;;;;;;21.02;4.53;;;;;;;19.02;29.05;100723.88;6348776;27;20060;-79
2022/03/25 14:03:34;;;;;;;8.73;4.10;;;;;;;18.82;28.16;100721.16;6348591;28;20039;-77
2022/03/25 14:06:45;;;;;;;17.58;3.78;;;;;;;18.57;28.94;100718.88;6330524;28;20080;-76
2022/03/25 14:09:54;;;;;;;9.70;2.92;;;;;;;18.41;28.30;100717.53;6348029;28;20053;-76
2022/03/25 14:13:03;;;;;;;10.77;3.35;;;;;;;18.33;28.94;100718.16;6345423;28;20077;-76
2022/03/25 14:16:16;;;;;;;15.32;3.20;;;;;;;18.35;28.62;100712.75;6346278;28;20044;-76